Betania — EA5995 — position and weather

sailwx.info

Track history (hours):
 
Tides and Currents Weather Stations Pressure Air Temp Water Temp Dewpoint Dewpoint Depression Visibility Wind Speed Wind Dir Waves Ship Positions

Betania

Last reported at 2017-Sep-18 11:14 UTC. Time now 2017-Sep-19 20:49 UTC.
Position N 28°30' W 016°12'.

Length 17 m; draft 3 m.

Type: Fishing. MMSI: 224069860.

Date/timePositionNaut miles runAvg speedWind from/ knotsBaromVisibWave heightAir tempDewpointWater temp
2017-Sep-18 11:14N 28°30' W 016°12'0 0.0
2017-Sep-18 10:57N 28°30' W 016°12'0 0.0
2017-Sep-18 10:22N 28°30' W 016°12'0 0.0
2017-Sep-18 09:48N 28°30' W 016°12'0 0.0
2017-Sep-18 09:21N 28°30' W 016°12'0 0.0
2017-Sep-18 08:58N 28°30' W 016°12'27 1.3
2017-Sep-17 12:23N 28°41' W 015°44'5 8.1
2017-Sep-17 11:46N 28°43' W 015°39'7 8.2
2017-Sep-17 10:56N 28°45' W 015°32'5 8.2
2017-Sep-17 10:16N 28°48' W 015°26'2 8.1
2017-Sep-17 10:00N 28°49' W 015°24'4 8.2
2017-Sep-17 09:28N 28°50' W 015°19'  
2017-Sep-14 08:25N 30°00' W 012°32'3 0.5
2017-Sep-14 02:21N 30°04' W 012°32'201 5.4
2017-Sep-12 12:47N 28°33' W 015°58'3 7.0
2017-Sep-12 12:23N 28°32' W 016°01'10 0.2
2017-Sep-10 12:30N 28°29' W 016°12'30 8.6
2017-Sep-10 09:02N 28°39' W 015°40'0 8.2
2017-Sep-10 08:59N 28°39' W 015°40'4 8.1
2017-Sep-10 08:27N 28°40' W 015°35'4 8.2
2017-Sep-10 08:00N 28°41' W 015°31'4 8.2
2017-Sep-10 07:30N 28°43' W 015°27'4 8.2
2017-Sep-10 07:00N 28°44' W 015°22'4 8.4
2017-Sep-10 06:30N 28°46' W 015°18'86 8.2
2017-Sep-09 20:08N 29°19' W 013°48'2 8.5
2017-Sep-09 19:56N 29°20' W 013°46'  
Track history (hours):
 
Tides and Currents Weather Stations Pressure Air Temp Water Temp Dewpoint Dewpoint Depression Visibility Wind Speed Wind Dir Waves Ship Positions

Betania

Last reported at 2017-Sep-18 11:14 UTC. Time now 2017-Sep-19 20:49 UTC.
Position N 28°30' W 016°12'.

Length 17 m; draft 3 m.

Type: Fishing. MMSI: 224069860.

Date/timePositionNaut miles runAvg speedWind from/ knotsBaromVisibWave heightAir tempDewpointWater temp
2017-Sep-18 11:14N 28°30' W 016°12'0 0.0
2017-Sep-18 10:57N 28°30' W 016°12'0 0.0
2017-Sep-18 10:22N 28°30' W 016°12'0 0.0
2017-Sep-18 09:48N 28°30' W 016°12'0 0.0
2017-Sep-18 09:21N 28°30' W 016°12'0 0.0
2017-Sep-18 08:58N 28°30' W 016°12'27 1.3
2017-Sep-17 12:23N 28°41' W 015°44'5 8.1
2017-Sep-17 11:46N 28°43' W 015°39'7 8.2
2017-Sep-17 10:56N 28°45' W 015°32'5 8.2
2017-Sep-17 10:16N 28°48' W 015°26'2 8.1
2017-Sep-17 10:00N 28°49' W 015°24'4 8.2
2017-Sep-17 09:28N 28°50' W 015°19'  
2017-Sep-14 08:25N 30°00' W 012°32'3 0.5
2017-Sep-14 02:21N 30°04' W 012°32'201 5.4
2017-Sep-12 12:47N 28°33' W 015°58'3 7.0
2017-Sep-12 12:23N 28°32' W 016°01'10 0.2
2017-Sep-10 12:30N 28°29' W 016°12'30 8.6
2017-Sep-10 09:02N 28°39' W 015°40'0 8.2
2017-Sep-10 08:59N 28°39' W 015°40'4 8.1
2017-Sep-10 08:27N 28°40' W 015°35'4 8.2
2017-Sep-10 08:00N 28°41' W 015°31'4 8.2
2017-Sep-10 07:30N 28°43' W 015°27'4 8.2
2017-Sep-10 07:00N 28°44' W 015°22'4 8.4
2017-Sep-10 06:30N 28°46' W 015°18'86 8.2
2017-Sep-09 20:08N 29°19' W 013°48'2 8.5
2017-Sep-09 19:56N 29°20' W 013°46'  

Dump ship's entire track history